sensor_id;sensor_type;location;lat;lon;timestamp;P1;durP1;ratioP1;P2;durP2;ratioP2
21743;SDS011;11034;48.556;9.342;2023-07-24T00:00:36;11.98;;;7.55;;
21743;SDS011;11034;48.556;9.342;2023-07-24T00:03:05;10.18;;;7.50;;
21743;SDS011;11034;48.556;9.342;2023-07-24T00:05:35;12.50;;;8.15;;
21743;SDS011;11034;48.556;9.342;2023-07-24T00:08:03;12.60;;;7.65;;
21743;SDS011;11034;48.556;9.342;2023-07-24T00:10:32;15.05;;;7.93;;
21743;SDS011;11034;48.556;9.342;2023-07-24T00:13:00;13.45;;;7.68;;
21743;SDS011;11034;48.556;9.342;2023-07-24T00:15:29;12.57;;;8.20;;
21743;SDS011;11034;48.556;9.342;2023-07-24T00:17:57;12.65;;;7.97;;
21743;SDS011;11034;48.556;9.342;2023-07-24T00:20:26;10.38;;;7.20;;
21743;SDS011;11034;48.556;9.342;2023-07-24T00:22:55;13.63;;;7.68;;
21743;SDS011;11034;48.556;9.342;2023-07-24T00:25:23;14.68;;;8.43;;
21743;SDS011;11034;48.556;9.342;2023-07-24T00:27:51;12.80;;;8.25;;
21743;SDS011;11034;48.556;9.342;2023-07-24T00:30:19;11.73;;;7.82;;
21743;SDS011;11034;48.556;9.342;2023-07-24T00:32:47;15.43;;;7.68;;
21743;SDS011;11034;48.556;9.342;2023-07-24T00:35:15;10.70;;;7.32;;
21743;SDS011;11034;48.556;9.342;2023-07-24T00:37:43;13.18;;;7.50;;
21743;SDS011;11034;48.556;9.342;2023-07-24T00:40:13;10.90;;;7.50;;
21743;SDS011;11034;48.556;9.342;2023-07-24T00:42:45;12.43;;;7.15;;
21743;SDS011;11034;48.556;9.342;2023-07-24T00:45:14;11.90;;;7.47;;
21743;SDS011;11034;48.556;9.342;2023-07-24T00:47:42;12.43;;;7.07;;
21743;SDS011;11034;48.556;9.342;2023-07-24T00:50:11;12.88;;;7.55;;
21743;SDS011;11034;48.556;9.342;2023-07-24T00:52:40;10.77;;;7.25;;
21743;SDS011;11034;48.556;9.342;2023-07-24T00:55:10;13.70;;;7.50;;
21743;SDS011;11034;48.556;9.342;2023-07-24T00:57:41;12.95;;;7.25;;
21743;SDS011;11034;48.556;9.342;2023-07-24T01:00:10;12.73;;;7.43;;
21743;SDS011;11034;48.556;9.342;2023-07-24T01:02:38;13.45;;;7.95;;
21743;SDS011;11034;48.556;9.342;2023-07-24T01:05:07;11.63;;;7.55;;
21743;SDS011;11034;48.556;9.342;2023-07-24T01:07:36;12.52;;;7.95;;
21743;SDS011;11034;48.556;9.342;2023-07-24T01:10:04;14.48;;;7.70;;
21743;SDS011;11034;48.556;9.342;2023-07-24T01:12:35;13.20;;;7.68;;
21743;SDS011;11034;48.556;9.342;2023-07-24T01:15:09;11.80;;;7.45;;
21743;SDS011;11034;48.556;9.342;2023-07-24T01:17:45;15.40;;;7.07;;
21743;SDS011;11034;48.556;9.342;2023-07-24T01:20:16;14.20;;;7.60;;
21743;SDS011;11034;48.556;9.342;2023-07-24T01:22:48;12.55;;;7.30;;
21743;SDS011;11034;48.556;9.342;2023-07-24T01:25:32;13.65;;;7.20;;
21743;SDS011;11034;48.556;9.342;2023-07-24T01:28:07;10.23;;;6.97;;
21743;SDS011;11034;48.556;9.342;2023-07-24T01:30:35;13.10;;;8.00;;
21743;SDS011;11034;48.556;9.342;2023-07-24T01:33:03;13.13;;;7.70;;
21743;SDS011;11034;48.556;9.342;2023-07-24T01:35:31;13.50;;;7.43;;
21743;SDS011;11034;48.556;9.342;2023-07-24T01:38:00;10.50;;;7.20;;
21743;SDS011;11034;48.556;9.342;2023-07-24T01:40:30;12.18;;;7.82;;
21743;SDS011;11034;48.556;9.342;2023-07-24T01:42:58;10.80;;;7.28;;
21743;SDS011;11034;48.556;9.342;2023-07-24T01:45:28;14.88;;;7.47;;
21743;SDS011;11034;48.556;9.342;2023-07-24T01:47:56;13.20;;;7.57;;
21743;SDS011;11034;48.556;9.342;2023-07-24T01:50:24;13.73;;;7.22;;
21743;SDS011;11034;48.556;9.342;2023-07-24T01:52:52;12.70;;;7.63;;
21743;SDS011;11034;48.556;9.342;2023-07-24T01:55:20;11.25;;;7.57;;
21743;SDS011;11034;48.556;9.342;2023-07-24T01:57:48;9.95;;;6.55;;
21743;SDS011;11034;48.556;9.342;2023-07-24T02:00:16;11.80;;;7.30;;
21743;SDS011;11034;48.556;9.342;2023-07-24T02:02:46;12.23;;;7.10;;
21743;SDS011;11034;48.556;9.342;2023-07-24T02:05:14;14.35;;;8.25;;
21743;SDS011;11034;48.556;9.342;2023-07-24T02:07:42;10.27;;;7.18;;
21743;SDS011;11034;48.556;9.342;2023-07-24T02:10:10;11.77;;;7.65;;
21743;SDS011;11034;48.556;9.342;2023-07-24T02:12:38;12.93;;;8.05;;
21743;SDS011;11034;48.556;9.342;2023-07-24T02:15:07;11.23;;;7.57;;
21743;SDS011;11034;48.556;9.342;2023-07-24T02:17:36;14.52;;;8.07;;
21743;SDS011;11034;48.556;9.342;2023-07-24T02:20:07;10.95;;;7.32;;
21743;SDS011;11034;48.556;9.342;2023-07-24T02:22:35;10.73;;;7.40;;
21743;SDS011;11034;48.556;9.342;2023-07-24T02:25:03;13.23;;;7.60;;
21743;SDS011;11034;48.556;9.342;2023-07-24T02:27:32;13.35;;;7.13;;
21743;SDS011;11034;48.556;9.342;2023-07-24T02:30:01;13.48;;;7.88;;
21743;SDS011;11034;48.556;9.342;2023-07-24T02:32:30;11.68;;;7.53;;
21743;SDS011;11034;48.556;9.342;2023-07-24T02:34:58;14.98;;;8.05;;
21743;SDS011;11034;48.556;9.342;2023-07-24T02:37:28;13.95;;;7.28;;
21743;SDS011;11034;48.556;9.342;2023-07-24T02:39:56;12.52;;;7.38;;
21743;SDS011;11034;48.556;9.342;2023-07-24T02:42:24;12.20;;;7.78;;
21743;SDS011;11034;48.556;9.342;2023-07-24T02:44:52;13.38;;;8.25;;
21743;SDS011;11034;48.556;9.342;2023-07-24T02:47:20;13.82;;;8.68;;
21743;SDS011;11034;48.556;9.342;2023-07-24T02:49:48;16.00;;;9.27;;
21743;SDS011;11034;48.556;9.342;2023-07-24T02:52:16;13.05;;;8.05;;
21743;SDS011;11034;48.556;9.342;2023-07-24T02:54:45;14.23;;;8.43;;
21743;SDS011;11034;48.556;9.342;2023-07-24T02:57:13;14.90;;;9.15;;
21743;SDS011;11034;48.556;9.342;2023-07-24T02:59:41;13.40;;;7.97;;
21743;SDS011;11034;48.556;9.342;2023-07-24T03:02:09;14.38;;;8.48;;
21743;SDS011;11034;48.556;9.342;2023-07-24T03:04:37;13.38;;;8.75;;
21743;SDS011;11034;48.556;9.342;2023-07-24T03:07:05;14.57;;;8.63;;
21743;SDS011;11034;48.556;9.342;2023-07-24T03:09:33;13.15;;;8.82;;
21743;SDS011;11034;48.556;9.342;2023-07-24T03:12:03;15.10;;;9.15;;
21743;SDS011;11034;48.556;9.342;2023-07-24T03:14:31;13.20;;;8.63;;
21743;SDS011;11034;48.556;9.342;2023-07-24T03:16:59;12.73;;;8.20;;
21743;SDS011;11034;48.556;9.342;2023-07-24T03:19:29;13.88;;;8.05;;
21743;SDS011;11034;48.556;9.342;2023-07-24T03:21:57;13.20;;;8.43;;
21743;SDS011;11034;48.556;9.342;2023-07-24T03:24:25;13.48;;;8.50;;
21743;SDS011;11034;48.556;9.342;2023-07-24T03:26:54;12.60;;;8.48;;
21743;SDS011;11034;48.556;9.342;2023-07-24T03:29:23;13.98;;;8.23;;
21743;SDS011;11034;48.556;9.342;2023-07-24T03:31:51;12.88;;;8.20;;
21743;SDS011;11034;48.556;9.342;2023-07-24T03:34:19;13.30;;;8.02;;
21743;SDS011;11034;48.556;9.342;2023-07-24T03:36:47;14.02;;;8.32;;
21743;SDS011;11034;48.556;9.342;2023-07-24T03:39:15;12.90;;;8.52;;
21743;SDS011;11034;48.556;9.342;2023-07-24T03:41:44;15.43;;;8.50;;
21743;SDS011;11034;48.556;9.342;2023-07-24T03:44:12;12.25;;;8.20;;
21743;SDS011;11034;48.556;9.342;2023-07-24T03:46:41;11.98;;;8.20;;
21743;SDS011;11034;48.556;9.342;2023-07-24T03:49:09;13.13;;;8.32;;
21743;SDS011;11034;48.556;9.342;2023-07-24T03:51:37;12.85;;;7.80;;
21743;SDS011;11034;48.556;9.342;2023-07-24T03:54:05;12.60;;;8.35;;
21743;SDS011;11034;48.556;9.342;2023-07-24T03:56:33;12.10;;;7.78;;
21743;SDS011;11034;48.556;9.342;2023-07-24T03:59:01;13.70;;;8.35;;
21743;SDS011;11034;48.556;9.342;2023-07-24T04:01:29;13.20;;;7.50;;
21743;SDS011;11034;48.556;9.342;2023-07-24T04:03:59;11.60;;;7.65;;
21743;SDS011;11034;48.556;9.342;2023-07-24T04:06:27;14.02;;;7.93;;
21743;SDS011;11034;48.556;9.342;2023-07-24T04:08:56;13.02;;;8.15;;
21743;SDS011;11034;48.556;9.342;2023-07-24T04:11:25;12.98;;;7.88;;
21743;SDS011;11034;48.556;9.342;2023-07-24T04:13:53;12.40;;;7.97;;
21743;SDS011;11034;48.556;9.342;2023-07-24T04:16:21;17.25;;;8.07;;
21743;SDS011;11034;48.556;9.342;2023-07-24T04:18:51;13.15;;;8.00;;
21743;SDS011;11034;48.556;9.342;2023-07-24T04:21:20;13.55;;;8.40;;
21743;SDS011;11034;48.556;9.342;2023-07-24T04:23:50;14.65;;;7.88;;
21743;SDS011;11034;48.556;9.342;2023-07-24T04:26:18;13.65;;;8.55;;
21743;SDS011;11034;48.556;9.342;2023-07-24T04:28:46;14.07;;;8.55;;
21743;SDS011;11034;48.556;9.342;2023-07-24T04:31:14;12.98;;;8.35;;
21743;SDS011;11034;48.556;9.342;2023-07-24T04:33:43;17.15;;;8.65;;
21743;SDS011;11034;48.556;9.342;2023-07-24T04:36:11;11.68;;;7.72;;
21743;SDS011;11034;48.556;9.342;2023-07-24T04:38:44;13.45;;;8.18;;
21743;SDS011;11034;48.556;9.342;2023-07-24T04:41:13;11.75;;;7.93;;
21743;SDS011;11034;48.556;9.342;2023-07-24T04:43:41;13.82;;;8.93;;
21743;SDS011;11034;48.556;9.342;2023-07-24T04:46:09;13.48;;;8.70;;
21743;SDS011;11034;48.556;9.342;2023-07-24T04:48:37;14.05;;;8.43;;
21743;SDS011;11034;48.556;9.342;2023-07-24T04:51:06;13.60;;;8.88;;
21743;SDS011;11034;48.556;9.342;2023-07-24T04:53:36;12.45;;;7.93;;
21743;SDS011;11034;48.556;9.342;2023-07-24T04:56:05;12.20;;;8.05;;
21743;SDS011;11034;48.556;9.342;2023-07-24T04:58:33;11.95;;;7.70;;
21743;SDS011;11034;48.556;9.342;2023-07-24T05:01:02;12.82;;;7.80;;
21743;SDS011;11034;48.556;9.342;2023-07-24T05:03:31;14.70;;;7.72;;
21743;SDS011;11034;48.556;9.342;2023-07-24T05:05:59;12.18;;;8.05;;
21743;SDS011;11034;48.556;9.342;2023-07-24T05:08:27;13.70;;;8.75;;
21743;SDS011;11034;48.556;9.342;2023-07-24T05:10:55;11.63;;;7.63;;
21743;SDS011;11034;48.556;9.342;2023-07-24T05:13:26;12.93;;;7.80;;
21743;SDS011;11034;48.556;9.342;2023-07-24T05:15:54;14.45;;;8.27;;
21743;SDS011;11034;48.556;9.342;2023-07-24T05:18:22;11.27;;;7.72;;
21743;SDS011;11034;48.556;9.342;2023-07-24T05:20:50;13.55;;;7.85;;
21743;SDS011;11034;48.556;9.342;2023-07-24T05:23:18;13.57;;;7.70;;
21743;SDS011;11034;48.556;9.342;2023-07-24T05:25:46;11.65;;;7.88;;
21743;SDS011;11034;48.556;9.342;2023-07-24T05:28:14;12.45;;;8.23;;
21743;SDS011;11034;48.556;9.342;2023-07-24T05:30:44;11.35;;;7.40;;
21743;SDS011;11034;48.556;9.342;2023-07-24T05:33:12;13.27;;;7.82;;
21743;SDS011;11034;48.556;9.342;2023-07-24T05:35:40;12.60;;;7.95;;
21743;SDS011;11034;48.556;9.342;2023-07-24T05:38:09;11.23;;;7.75;;
21743;SDS011;11034;48.556;9.342;2023-07-24T05:40:37;12.65;;;8.50;;
21743;SDS011;11034;48.556;9.342;2023-07-24T05:43:05;13.30;;;7.38;;
21743;SDS011;11034;48.556;9.342;2023-07-24T05:45:33;12.00;;;7.45;;
21743;SDS011;11034;48.556;9.342;2023-07-24T05:48:03;12.13;;;7.60;;
21743;SDS011;11034;48.556;9.342;2023-07-24T05:50:31;12.82;;;8.30;;
21743;SDS011;11034;48.556;9.342;2023-07-24T05:52:59;11.63;;;7.70;;
21743;SDS011;11034;48.556;9.342;2023-07-24T05:55:27;11.07;;;7.57;;
21743;SDS011;11034;48.556;9.342;2023-07-24T05:57:55;12.60;;;7.90;;
21743;SDS011;11034;48.556;9.342;2023-07-24T06:00:23;10.93;;;7.72;;
21743;SDS011;11034;48.556;9.342;2023-07-24T06:02:52;12.02;;;7.93;;
21743;SDS011;11034;48.556;9.342;2023-07-24T06:05:24;13.50;;;7.80;;
21743;SDS011;11034;48.556;9.342;2023-07-24T06:07:52;12.98;;;7.72;;
21743;SDS011;11034;48.556;9.342;2023-07-24T06:10:20;11.68;;;7.95;;
21743;SDS011;11034;48.556;9.342;2023-07-24T06:12:48;13.80;;;7.88;;
21743;SDS011;11034;48.556;9.342;2023-07-24T06:15:16;11.18;;;7.88;;
21743;SDS011;11034;48.556;9.342;2023-07-24T06:17:44;12.82;;;8.38;;
21743;SDS011;11034;48.556;9.342;2023-07-24T06:20:18;12.57;;;7.68;;
21743;SDS011;11034;48.556;9.342;2023-07-24T06:22:48;13.43;;;8.07;;
21743;SDS011;11034;48.556;9.342;2023-07-24T06:25:16;13.02;;;8.07;;
21743;SDS011;11034;48.556;9.342;2023-07-24T06:27:44;11.50;;;7.40;;
21743;SDS011;11034;48.556;9.342;2023-07-24T06:30:12;12.20;;;8.45;;
21743;SDS011;11034;48.556;9.342;2023-07-24T06:32:42;11.70;;;8.10;;
21743;SDS011;11034;48.556;9.342;2023-07-24T06:35:10;13.13;;;8.05;;
21743;SDS011;11034;48.556;9.342;2023-07-24T06:37:40;11.27;;;7.63;;
21743;SDS011;11034;48.556;9.342;2023-07-24T06:40:10;12.70;;;7.93;;
21743;SDS011;11034;48.556;9.342;2023-07-24T06:42:38;13.32;;;8.02;;
21743;SDS011;11034;48.556;9.342;2023-07-24T06:45:07;12.68;;;8.10;;
21743;SDS011;11034;48.556;9.342;2023-07-24T06:47:36;9.40;;;7.28;;
21743;SDS011;11034;48.556;9.342;2023-07-24T06:50:04;12.48;;;8.15;;
21743;SDS011;11034;48.556;9.342;2023-07-24T06:52:33;12.52;;;8.25;;
21743;SDS011;11034;48.556;9.342;2023-07-24T06:55:01;11.98;;;7.32;;
21743;SDS011;11034;48.556;9.342;2023-07-24T06:57:31;15.65;;;7.57;;
21743;SDS011;11034;48.556;9.342;2023-07-24T06:59:59;12.63;;;8.23;;
21743;SDS011;11034;48.556;9.342;2023-07-24T07:02:30;12.52;;;8.00;;
21743;SDS011;11034;48.556;9.342;2023-07-24T07:05:00;13.25;;;7.57;;
21743;SDS011;11034;48.556;9.342;2023-07-24T07:07:31;13.77;;;7.53;;
21743;SDS011;11034;48.556;9.342;2023-07-24T07:10:15;10.98;;;7.88;;
21743;SDS011;11034;48.556;9.342;2023-07-24T07:12:44;14.38;;;8.02;;
21743;SDS011;11034;48.556;9.342;2023-07-24T07:15:12;10.00;;;7.43;;
21743;SDS011;11034;48.556;9.342;2023-07-24T07:17:41;13.13;;;7.40;;
21743;SDS011;11034;48.556;9.342;2023-07-24T07:20:10;12.10;;;7.78;;
21743;SDS011;11034;48.556;9.342;2023-07-24T07:22:38;14.13;;;7.82;;
21743;SDS011;11034;48.556;9.342;2023-07-24T07:25:06;13.10;;;7.78;;
21743;SDS011;11034;48.556;9.342;2023-07-24T07:27:34;12.35;;;7.68;;
21743;SDS011;11034;48.556;9.342;2023-07-24T07:30:04;11.77;;;7.50;;
21743;SDS011;11034;48.556;9.342;2023-07-24T07:32:33;11.20;;;7.60;;
21743;SDS011;11034;48.556;9.342;2023-07-24T07:35:01;11.23;;;7.30;;
21743;SDS011;11034;48.556;9.342;2023-07-24T07:37:29;11.55;;;7.43;;
21743;SDS011;11034;48.556;9.342;2023-07-24T07:39:57;12.23;;;7.85;;
21743;SDS011;11034;48.556;9.342;2023-07-24T07:42:25;13.77;;;7.15;;
21743;SDS011;11034;48.556;9.342;2023-07-24T07:44:53;10.88;;;7.40;;
21743;SDS011;11034;48.556;9.342;2023-07-24T07:47:23;10.38;;;7.30;;
21743;SDS011;11034;48.556;9.342;2023-07-24T07:49:51;12.18;;;7.57;;
21743;SDS011;11034;48.556;9.342;2023-07-24T07:52:19;9.43;;;6.97;;
21743;SDS011;11034;48.556;9.342;2023-07-24T07:54:48;11.43;;;7.20;;
21743;SDS011;11034;48.556;9.342;2023-07-24T07:57:16;11.98;;;7.07;;
21743;SDS011;11034;48.556;9.342;2023-07-24T07:59:44;11.80;;;6.60;;
21743;SDS011;11034;48.556;9.342;2023-07-24T08:02:12;13.82;;;7.22;;
21743;SDS011;11034;48.556;9.342;2023-07-24T08:04:42;12.98;;;7.35;;
21743;SDS011;11034;48.556;9.342;2023-07-24T08:07:10;13.80;;;6.97;;
21743;SDS011;11034;48.556;9.342;2023-07-24T08:09:38;13.98;;;6.95;;
21743;SDS011;11034;48.556;9.342;2023-07-24T08:12:06;12.18;;;6.15;;
21743;SDS011;11034;48.556;9.342;2023-07-24T08:14:35;11.80;;;6.32;;
21743;SDS011;11034;48.556;9.342;2023-07-24T08:17:03;10.02;;;6.50;;
21743;SDS011;11034;48.556;9.342;2023-07-24T08:19:31;10.57;;;5.90;;
21743;SDS011;11034;48.556;9.342;2023-07-24T08:22:01;9.52;;;5.90;;
21743;SDS011;11034;48.556;9.342;2023-07-24T08:24:33;9.27;;;6.20;;
21743;SDS011;11034;48.556;9.342;2023-07-24T08:27:01;10.55;;;6.35;;
21743;SDS011;11034;48.556;9.342;2023-07-24T08:29:30;11.43;;;5.80;;
21743;SDS011;11034;48.556;9.342;2023-07-24T08:31:58;8.85;;;6.18;;
21743;SDS011;11034;48.556;9.342;2023-07-24T08:34:26;10.25;;;5.93;;
21743;SDS011;11034;48.556;9.342;2023-07-24T08:36:54;10.20;;;6.57;;
21743;SDS011;11034;48.556;9.342;2023-07-24T08:39:23;7.95;;;5.65;;
21743;SDS011;11034;48.556;9.342;2023-07-24T08:41:51;11.45;;;6.35;;
21743;SDS011;11034;48.556;9.342;2023-07-24T08:44:19;13.55;;;6.60;;
21743;SDS011;11034;48.556;9.342;2023-07-24T08:46:50;9.85;;;6.38;;
21743;SDS011;11034;48.556;9.342;2023-07-24T08:49:19;12.30;;;6.85;;
21743;SDS011;11034;48.556;9.342;2023-07-24T08:51:48;13.23;;;7.18;;
21743;SDS011;11034;48.556;9.342;2023-07-24T08:54:16;11.07;;;7.25;;
21743;SDS011;11034;48.556;9.342;2023-07-24T08:56:47;13.13;;;7.03;;
21743;SDS011;11034;48.556;9.342;2023-07-24T08:59:16;13.23;;;7.05;;
21743;SDS011;11034;48.556;9.342;2023-07-24T09:01:44;13.85;;;6.72;;
21743;SDS011;11034;48.556;9.342;2023-07-24T09:04:13;13.98;;;7.05;;
21743;SDS011;11034;48.556;9.342;2023-07-24T09:06:41;13.80;;;6.75;;
21743;SDS011;11034;48.556;9.342;2023-07-24T09:09:13;9.65;;;6.38;;
21743;SDS011;11034;48.556;9.342;2023-07-24T09:11:45;11.80;;;6.75;;
21743;SDS011;11034;48.556;9.342;2023-07-24T09:14:20;9.60;;;6.80;;
21743;SDS011;11034;48.556;9.342;2023-07-24T09:16:49;12.02;;;6.40;;
21743;SDS011;11034;48.556;9.342;2023-07-24T09:19:20;9.52;;;6.28;;
21743;SDS011;11034;48.556;9.342;2023-07-24T09:21:51;9.88;;;6.00;;
21743;SDS011;11034;48.556;9.342;2023-07-24T09:24:19;13.68;;;6.25;;
21743;SDS011;11034;48.556;9.342;2023-07-24T09:26:49;8.07;;;6.10;;
21743;SDS011;11034;48.556;9.342;2023-07-24T09:29:29;8.43;;;6.00;;
21743;SDS011;11034;48.556;9.342;2023-07-24T09:31:58;9.27;;;5.63;;
21743;SDS011;11034;48.556;9.342;2023-07-24T09:34:26;12.13;;;6.28;;
21743;SDS011;11034;48.556;9.342;2023-07-24T09:36:54;12.25;;;6.65;;
21743;SDS011;11034;48.556;9.342;2023-07-24T09:39:23;9.73;;;6.32;;
21743;SDS011;11034;48.556;9.342;2023-07-24T09:41:52;10.05;;;6.15;;
21743;SDS011;11034;48.556;9.342;2023-07-24T09:44:21;10.45;;;6.72;;
21743;SDS011;11034;48.556;9.342;2023-07-24T09:46:52;12.63;;;6.50;;
21743;SDS011;11034;48.556;9.342;2023-07-24T09:49:23;9.40;;;6.38;;
21743;SDS011;11034;48.556;9.342;2023-07-24T09:51:51;8.93;;;6.10;;
21743;SDS011;11034;48.556;9.342;2023-07-24T09:54:24;9.35;;;5.88;;
21743;SDS011;11034;48.556;9.342;2023-07-24T09:56:58;7.75;;;5.90;;
21743;SDS011;11034;48.556;9.342;2023-07-24T09:59:40;9.18;;;5.95;;
21743;SDS011;11034;48.556;9.342;2023-07-24T10:02:08;10.20;;;5.75;;
21743;SDS011;11034;48.556;9.342;2023-07-24T10:04:40;11.23;;;6.20;;
21743;SDS011;11034;48.556;9.342;2023-07-24T10:07:09;9.98;;;5.97;;
21743;SDS011;11034;48.556;9.342;2023-07-24T10:09:37;9.82;;;5.80;;
21743;SDS011;11034;48.556;9.342;2023-07-24T10:12:08;9.00;;;6.18;;
21743;SDS011;11034;48.556;9.342;2023-07-24T10:14:36;9.35;;;5.97;;
21743;SDS011;11034;48.556;9.342;2023-07-24T10:17:05;8.15;;;5.78;;
21743;SDS011;11034;48.556;9.342;2023-07-24T10:19:36;8.48;;;5.72;;
21743;SDS011;11034;48.556;9.342;2023-07-24T10:22:06;10.23;;;5.93;;
21743;SDS011;11034;48.556;9.342;2023-07-24T10:24:34;10.65;;;6.40;;
21743;SDS011;11034;48.556;9.342;2023-07-24T10:27:09;9.70;;;5.85;;
21743;SDS011;11034;48.556;9.342;2023-07-24T10:29:38;9.38;;;6.35;;
21743;SDS011;11034;48.556;9.342;2023-07-24T10:32:16;11.75;;;6.82;;
21743;SDS011;11034;48.556;9.342;2023-07-24T10:34:45;8.50;;;5.90;;
21743;SDS011;11034;48.556;9.342;2023-07-24T10:37:30;11.85;;;7.13;;
21743;SDS011;11034;48.556;9.342;2023-07-24T10:40:01;12.68;;;6.47;;
21743;SDS011;11034;48.556;9.342;2023-07-24T10:42:32;10.27;;;6.82;;
21743;SDS011;11034;48.556;9.342;2023-07-24T10:45:02;10.32;;;6.80;;
21743;SDS011;11034;48.556;9.342;2023-07-24T10:47:31;14.98;;;7.55;;
21743;SDS011;11034;48.556;9.342;2023-07-24T10:50:00;12.73;;;7.35;;
21743;SDS011;11034;48.556;9.342;2023-07-24T10:52:29;12.88;;;7.05;;
21743;SDS011;11034;48.556;9.342;2023-07-24T10:54:59;10.80;;;6.78;;
21743;SDS011;11034;48.556;9.342;2023-07-24T10:57:28;11.02;;;6.57;;
21743;SDS011;11034;48.556;9.342;2023-07-24T10:59:58;9.05;;;6.47;;
21743;SDS011;11034;48.556;9.342;2023-07-24T11:02:27;9.82;;;6.22;;
21743;SDS011;11034;48.556;9.342;2023-07-24T11:04:58;9.85;;;5.85;;
21743;SDS011;11034;48.556;9.342;2023-07-24T11:07:31;10.50;;;6.63;;
21743;SDS011;11034;48.556;9.342;2023-07-24T11:10:00;10.65;;;6.28;;
21743;SDS011;11034;48.556;9.342;2023-07-24T11:12:28;10.60;;;6.38;;
21743;SDS011;11034;48.556;9.342;2023-07-24T11:15:00;10.50;;;6.30;;
21743;SDS011;11034;48.556;9.342;2023-07-24T11:17:37;10.98;;;6.70;;
21743;SDS011;11034;48.556;9.342;2023-07-24T11:20:10;9.93;;;6.63;;
21743;SDS011;11034;48.556;9.342;2023-07-24T11:22:39;9.95;;;6.40;;
21743;SDS011;11034;48.556;9.342;2023-07-24T11:25:10;8.35;;;6.00;;
21743;SDS011;11034;48.556;9.342;2023-07-24T11:27:39;8.85;;;6.22;;
21743;SDS011;11034;48.556;9.342;2023-07-24T11:30:11;11.43;;;6.60;;
21743;SDS011;11034;48.556;9.342;2023-07-24T11:32:40;7.85;;;5.85;;
21743;SDS011;11034;48.556;9.342;2023-07-24T11:35:09;9.88;;;6.70;;
21743;SDS011;11034;48.556;9.342;2023-07-24T11:37:39;10.15;;;6.43;;
21743;SDS011;11034;48.556;9.342;2023-07-24T11:40:07;11.57;;;6.88;;
21743;SDS011;11034;48.556;9.342;2023-07-24T11:42:37;9.45;;;6.55;;
21743;SDS011;11034;48.556;9.342;2023-07-24T11:45:07;8.73;;;6.18;;
21743;SDS011;11034;48.556;9.342;2023-07-24T11:47:44;9.30;;;6.30;;
21743;SDS011;11034;48.556;9.342;2023-07-24T11:50:13;8.57;;;6.30;;
21743;SDS011;11034;48.556;9.342;2023-07-24T11:52:42;12.05;;;6.40;;
21743;SDS011;11034;48.556;9.342;2023-07-24T11:55:12;8.27;;;5.88;;
21743;SDS011;11034;48.556;9.342;2023-07-24T11:57:41;7.88;;;5.72;;
21743;SDS011;11034;48.556;9.342;2023-07-24T12:00:17;8.07;;;5.70;;
21743;SDS011;11034;48.556;9.342;2023-07-24T12:02:47;8.73;;;5.38;;
21743;SDS011;11034;48.556;9.342;2023-07-24T12:05:16;8.02;;;5.43;;
21743;SDS011;11034;48.556;9.342;2023-07-24T12:07:44;7.13;;;5.40;;
21743;SDS011;11034;48.556;9.342;2023-07-24T12:10:24;8.43;;;5.80;;
21743;SDS011;11034;48.556;9.342;2023-07-24T12:12:55;7.97;;;5.72;;
21743;SDS011;11034;48.556;9.342;2023-07-24T12:15:26;6.93;;;4.85;;
21743;SDS011;11034;48.556;9.342;2023-07-24T12:17:56;8.15;;;5.20;;
21743;SDS011;11034;48.556;9.342;2023-07-24T12:20:24;7.00;;;4.72;;
21743;SDS011;11034;48.556;9.342;2023-07-24T12:22:52;6.38;;;4.65;;
21743;SDS011;11034;48.556;9.342;2023-07-24T12:25:21;6.15;;;4.40;;
21743;SDS011;11034;48.556;9.342;2023-07-24T12:27:49;5.25;;;3.92;;
21743;SDS011;11034;48.556;9.342;2023-07-24T12:30:18;6.40;;;4.30;;
21743;SDS011;11034;48.556;9.342;2023-07-24T12:32:46;5.95;;;4.70;;
21743;SDS011;11034;48.556;9.342;2023-07-24T12:35:16;5.85;;;4.43;;
21743;SDS011;11034;48.556;9.342;2023-07-24T12:37:44;5.35;;;4.13;;
21743;SDS011;11034;48.556;9.342;2023-07-24T12:40:13;6.63;;;4.57;;
21743;SDS011;11034;48.556;9.342;2023-07-24T12:42:41;9.30;;;4.25;;
21743;SDS011;11034;48.556;9.342;2023-07-24T12:45:09;6.45;;;4.35;;
21743;SDS011;11034;48.556;9.342;2023-07-24T12:47:37;6.43;;;4.53;;
21743;SDS011;11034;48.556;9.342;2023-07-24T12:50:05;6.30;;;4.18;;
21743;SDS011;11034;48.556;9.342;2023-07-24T12:52:35;6.50;;;4.15;;
21743;SDS011;11034;48.556;9.342;2023-07-24T12:55:04;5.10;;;3.78;;
21743;SDS011;11034;48.556;9.342;2023-07-24T12:57:33;5.78;;;4.05;;
21743;SDS011;11034;48.556;9.342;2023-07-24T13:00:01;8.05;;;4.00;;
21743;SDS011;11034;48.556;9.342;2023-07-24T13:02:31;6.25;;;4.22;;
21743;SDS011;11034;48.556;9.342;2023-07-24T13:05:00;6.38;;;4.10;;
21743;SDS011;11034;48.556;9.342;2023-07-24T13:07:30;5.30;;;3.80;;
21743;SDS011;11034;48.556;9.342;2023-07-24T13:12:41;6.68;;;3.85;;
21743;SDS011;11034;48.556;9.342;2023-07-24T13:15:10;4.95;;;3.65;;
21743;SDS011;11034;48.556;9.342;2023-07-24T13:17:39;4.70;;;3.80;;
21743;SDS011;11034;48.556;9.342;2023-07-24T13:20:07;5.78;;;3.40;;
21743;SDS011;11034;48.556;9.342;2023-07-24T13:22:36;4.65;;;3.80;;
21743;SDS011;11034;48.556;9.342;2023-07-24T13:25:04;5.63;;;3.95;;
21743;SDS011;11034;48.556;9.342;2023-07-24T13:27:32;5.05;;;3.60;;
21743;SDS011;11034;48.556;9.342;2023-07-24T13:30:02;7.13;;;3.38;;
21743;SDS011;11034;48.556;9.342;2023-07-24T13:32:30;4.13;;;3.17;;
21743;SDS011;11034;48.556;9.342;2023-07-24T13:34:59;5.13;;;3.40;;
21743;SDS011;11034;48.556;9.342;2023-07-24T13:37:27;4.15;;;3.25;;
21743;SDS011;11034;48.556;9.342;2023-07-24T13:39:55;5.22;;;3.22;;
21743;SDS011;11034;48.556;9.342;2023-07-24T13:42:23;4.90;;;3.40;;
21743;SDS011;11034;48.556;9.342;2023-07-24T13:44:52;3.78;;;2.85;;
21743;SDS011;11034;48.556;9.342;2023-07-24T13:47:21;4.00;;;2.97;;
21743;SDS011;11034;48.556;9.342;2023-07-24T13:49:49;4.15;;;3.03;;
21743;SDS011;11034;48.556;9.342;2023-07-24T13:52:17;4.60;;;3.53;;
21743;SDS011;11034;48.556;9.342;2023-07-24T13:54:45;6.22;;;3.50;;
21743;SDS011;11034;48.556;9.342;2023-07-24T13:57:13;4.70;;;3.15;;
21743;SDS011;11034;48.556;9.342;2023-07-24T13:59:41;4.53;;;3.08;;
21743;SDS011;11034;48.556;9.342;2023-07-24T14:02:09;4.13;;;3.25;;
21743;SDS011;11034;48.556;9.342;2023-07-24T14:04:40;3.80;;;3.10;;
21743;SDS011;11034;48.556;9.342;2023-07-24T14:07:08;5.28;;;3.30;;
21743;SDS011;11034;48.556;9.342;2023-07-24T14:09:39;4.97;;;3.30;;
21743;SDS011;11034;48.556;9.342;2023-07-24T14:12:08;4.53;;;3.25;;
21743;SDS011;11034;48.556;9.342;2023-07-24T14:14:37;4.78;;;3.35;;
21743;SDS011;11034;48.556;9.342;2023-07-24T14:17:05;4.35;;;3.30;;
21743;SDS011;11034;48.556;9.342;2023-07-24T14:19:33;4.80;;;3.40;;
21743;SDS011;11034;48.556;9.342;2023-07-24T14:22:02;5.38;;;3.75;;
21743;SDS011;11034;48.556;9.342;2023-07-24T14:24:30;4.90;;;3.50;;
21743;SDS011;11034;48.556;9.342;2023-07-24T14:26:58;6.65;;;3.40;;
21743;SDS011;11034;48.556;9.342;2023-07-24T14:29:27;5.28;;;3.42;;
21743;SDS011;11034;48.556;9.342;2023-07-24T14:31:55;5.20;;;3.65;;
21743;SDS011;11034;48.556;9.342;2023-07-24T14:34:23;6.03;;;4.13;;
21743;SDS011;11034;48.556;9.342;2023-07-24T14:36:51;3.97;;;3.30;;
21743;SDS011;11034;48.556;9.342;2023-07-24T14:39:20;5.78;;;3.28;;
21743;SDS011;11034;48.556;9.342;2023-07-24T14:41:48;5.18;;;3.65;;
21743;SDS011;11034;48.556;9.342;2023-07-24T14:44:16;4.60;;;3.53;;
21743;SDS011;11034;48.556;9.342;2023-07-24T14:46:45;5.10;;;3.70;;
21743;SDS011;11034;48.556;9.342;2023-07-24T14:49:13;5.03;;;3.33;;
21743;SDS011;11034;48.556;9.342;2023-07-24T14:51:41;5.65;;;3.50;;